sensor_id;sensor_type;location;lat;lon;timestamp;P1;durP1;ratioP1;P2;durP2;ratioP2
16403;SDS011;8311;50.158;8.642;2024-02-16T00:01:57;8.68;;;3.95;;
16403;SDS011;8311;50.158;8.642;2024-02-16T00:04:50;8.65;;;3.30;;
16403;SDS011;8311;50.158;8.642;2024-02-16T00:07:48;7.25;;;3.33;;
16403;SDS011;8311;50.158;8.642;2024-02-16T00:10:40;7.93;;;3.03;;
16403;SDS011;8311;50.158;8.642;2024-02-16T00:13:34;9.40;;;3.17;;
16403;SDS011;8311;50.158;8.642;2024-02-16T00:16:28;5.82;;;3.17;;
16403;SDS011;8311;50.158;8.642;2024-02-16T00:19:23;7.10;;;3.28;;
16403;SDS011;8311;50.158;8.642;2024-02-16T00:22:16;8.20;;;2.95;;
16403;SDS011;8311;50.158;8.642;2024-02-16T00:25:13;7.05;;;3.45;;
16403;SDS011;8311;50.158;8.642;2024-02-16T00:28:08;6.00;;;3.08;;
16403;SDS011;8311;50.158;8.642;2024-02-16T00:31:02;6.88;;;3.15;;
16403;SDS011;8311;50.158;8.642;2024-02-16T00:33:57;9.70;;;3.63;;
16403;SDS011;8311;50.158;8.642;2024-02-16T00:36:50;6.38;;;3.20;;
16403;SDS011;8311;50.158;8.642;2024-02-16T00:39:43;5.30;;;2.90;;
16403;SDS011;8311;50.158;8.642;2024-02-16T00:42:38;5.57;;;3.10;;
16403;SDS011;8311;50.158;8.642;2024-02-16T00:45:31;8.70;;;3.17;;
16403;SDS011;8311;50.158;8.642;2024-02-16T00:48:24;4.90;;;3.05;;
16403;SDS011;8311;50.158;8.642;2024-02-16T00:51:17;7.85;;;2.83;;
16403;SDS011;8311;50.158;8.642;2024-02-16T00:54:10;6.95;;;3.28;;
16403;SDS011;8311;50.158;8.642;2024-02-16T00:57:03;6.60;;;3.28;;
16403;SDS011;8311;50.158;8.642;2024-02-16T00:59:59;4.85;;;2.65;;
16403;SDS011;8311;50.158;8.642;2024-02-16T01:02:52;8.05;;;3.20;;
16403;SDS011;8311;50.158;8.642;2024-02-16T01:05:45;7.40;;;3.03;;
16403;SDS011;8311;50.158;8.642;2024-02-16T01:08:38;6.43;;;3.58;;
16403;SDS011;8311;50.158;8.642;2024-02-16T01:11:31;6.32;;;2.80;;
16403;SDS011;8311;50.158;8.642;2024-02-16T01:14:25;6.32;;;3.40;;
16403;SDS011;8311;50.158;8.642;2024-02-16T01:17:20;6.13;;;2.83;;
16403;SDS011;8311;50.158;8.642;2024-02-16T01:20:13;8.07;;;3.20;;
16403;SDS011;8311;50.158;8.642;2024-02-16T01:23:07;5.68;;;2.97;;
16403;SDS011;8311;50.158;8.642;2024-02-16T01:26:00;7.47;;;3.17;;
16403;SDS011;8311;50.158;8.642;2024-02-16T01:28:54;7.32;;;2.90;;
16403;SDS011;8311;50.158;8.642;2024-02-16T01:31:47;5.22;;;2.53;;
16403;SDS011;8311;50.158;8.642;2024-02-16T01:34:41;5.65;;;2.90;;
16403;SDS011;8311;50.158;8.642;2024-02-16T01:37:38;5.75;;;2.40;;
16403;SDS011;8311;50.158;8.642;2024-02-16T01:40:31;6.07;;;2.67;;
16403;SDS011;8311;50.158;8.642;2024-02-16T01:43:25;4.85;;;2.80;;
16403;SDS011;8311;50.158;8.642;2024-02-16T01:46:18;5.65;;;2.58;;
16403;SDS011;8311;50.158;8.642;2024-02-16T01:49:13;5.55;;;2.42;;
16403;SDS011;8311;50.158;8.642;2024-02-16T01:52:09;6.20;;;3.08;;
16403;SDS011;8311;50.158;8.642;2024-02-16T01:55:05;5.85;;;2.78;;
16403;SDS011;8311;50.158;8.642;2024-02-16T01:58:00;5.68;;;2.80;;
16403;SDS011;8311;50.158;8.642;2024-02-16T02:00:55;4.95;;;3.03;;
16403;SDS011;8311;50.158;8.642;2024-02-16T02:03:48;5.15;;;2.65;;
16403;SDS011;8311;50.158;8.642;2024-02-16T02:06:42;5.88;;;2.30;;
16403;SDS011;8311;50.158;8.642;2024-02-16T02:09:37;4.03;;;2.15;;
16403;SDS011;8311;50.158;8.642;2024-02-16T02:12:30;5.32;;;2.67;;
16403;SDS011;8311;50.158;8.642;2024-02-16T02:15:24;4.80;;;2.55;;
16403;SDS011;8311;50.158;8.642;2024-02-16T02:18:17;6.63;;;2.72;;
16403;SDS011;8311;50.158;8.642;2024-02-16T02:21:10;4.75;;;2.40;;
16403;SDS011;8311;50.158;8.642;2024-02-16T02:24:07;4.53;;;2.60;;
16403;SDS011;8311;50.158;8.642;2024-02-16T02:27:00;5.93;;;2.83;;
16403;SDS011;8311;50.158;8.642;2024-02-16T02:29:55;5.80;;;2.53;;
16403;SDS011;8311;50.158;8.642;2024-02-16T02:32:50;4.32;;;2.30;;
16403;SDS011;8311;50.158;8.642;2024-02-16T02:35:44;6.43;;;2.80;;
16403;SDS011;8311;50.158;8.642;2024-02-16T02:38:38;3.63;;;2.33;;
16403;SDS011;8311;50.158;8.642;2024-02-16T02:41:33;5.05;;;2.45;;
16403;SDS011;8311;50.158;8.642;2024-02-16T02:44:26;5.20;;;2.40;;
16403;SDS011;8311;50.158;8.642;2024-02-16T02:47:19;4.60;;;2.40;;
16403;SDS011;8311;50.158;8.642;2024-02-16T02:50:13;5.90;;;2.05;;
16403;SDS011;8311;50.158;8.642;2024-02-16T02:53:06;3.78;;;2.22;;
16403;SDS011;8311;50.158;8.642;2024-02-16T02:56:01;5.00;;;2.55;;
16403;SDS011;8311;50.158;8.642;2024-02-16T02:58:55;4.35;;;2.25;;
16403;SDS011;8311;50.158;8.642;2024-02-16T03:01:49;4.57;;;2.60;;
16403;SDS011;8311;50.158;8.642;2024-02-16T03:04:42;4.03;;;2.13;;
16403;SDS011;8311;50.158;8.642;2024-02-16T03:07:35;5.20;;;2.35;;
16403;SDS011;8311;50.158;8.642;2024-02-16T03:10:28;6.80;;;2.20;;
16403;SDS011;8311;50.158;8.642;2024-02-16T03:13:25;5.50;;;2.58;;
16403;SDS011;8311;50.158;8.642;2024-02-16T03:16:19;6.47;;;2.53;;
16403;SDS011;8311;50.158;8.642;2024-02-16T03:19:13;3.53;;;2.15;;
16403;SDS011;8311;50.158;8.642;2024-02-16T03:22:07;4.35;;;2.17;;
16403;SDS011;8311;50.158;8.642;2024-02-16T03:25:00;4.20;;;2.25;;
16403;SDS011;8311;50.158;8.642;2024-02-16T03:27:53;3.65;;;2.13;;
16403;SDS011;8311;50.158;8.642;2024-02-16T03:30:49;4.70;;;2.20;;
16403;SDS011;8311;50.158;8.642;2024-02-16T03:33:44;3.42;;;2.13;;
16403;SDS011;8311;50.158;8.642;2024-02-16T03:36:37;3.83;;;2.10;;
16403;SDS011;8311;50.158;8.642;2024-02-16T03:39:30;3.85;;;1.98;;
16403;SDS011;8311;50.158;8.642;2024-02-16T03:42:23;4.28;;;2.28;;
16403;SDS011;8311;50.158;8.642;2024-02-16T03:45:16;4.68;;;2.42;;
16403;SDS011;8311;50.158;8.642;2024-02-16T03:48:10;3.63;;;1.65;;
16403;SDS011;8311;50.158;8.642;2024-02-16T03:51:05;3.88;;;2.17;;
16403;SDS011;8311;50.158;8.642;2024-02-16T03:53:58;5.00;;;2.38;;
16403;SDS011;8311;50.158;8.642;2024-02-16T03:56:53;3.78;;;1.98;;
16403;SDS011;8311;50.158;8.642;2024-02-16T03:59:46;5.20;;;2.10;;
16403;SDS011;8311;50.158;8.642;2024-02-16T04:02:39;3.92;;;1.95;;
16403;SDS011;8311;50.158;8.642;2024-02-16T04:05:32;4.72;;;1.95;;
16403;SDS011;8311;50.158;8.642;2024-02-16T04:08:28;4.43;;;1.90;;
16403;SDS011;8311;50.158;8.642;2024-02-16T04:11:21;3.20;;;1.95;;
16403;SDS011;8311;50.158;8.642;2024-02-16T04:14:15;4.35;;;2.40;;
16403;SDS011;8311;50.158;8.642;2024-02-16T04:17:13;4.25;;;2.05;;
16403;SDS011;8311;50.158;8.642;2024-02-16T04:20:06;3.67;;;1.98;;
16403;SDS011;8311;50.158;8.642;2024-02-16T04:23:01;3.63;;;2.35;;
16403;SDS011;8311;50.158;8.642;2024-02-16T04:25:56;4.32;;;2.17;;
16403;SDS011;8311;50.158;8.642;2024-02-16T04:28:51;4.05;;;1.98;;
16403;SDS011;8311;50.158;8.642;2024-02-16T04:31:44;3.35;;;2.22;;
16403;SDS011;8311;50.158;8.642;2024-02-16T04:34:37;4.55;;;2.35;;
16403;SDS011;8311;50.158;8.642;2024-02-16T04:37:30;6.72;;;2.65;;
16403;SDS011;8311;50.158;8.642;2024-02-16T04:40:23;3.72;;;2.08;;
16403;SDS011;8311;50.158;8.642;2024-02-16T04:43:18;3.60;;;2.05;;
16403;SDS011;8311;50.158;8.642;2024-02-16T04:46:13;4.78;;;2.35;;
16403;SDS011;8311;50.158;8.642;2024-02-16T04:49:08;4.10;;;2.50;;
16403;SDS011;8311;50.158;8.642;2024-02-16T04:52:01;4.63;;;1.90;;
16403;SDS011;8311;50.158;8.642;2024-02-16T04:54:55;4.40;;;1.88;;
16403;SDS011;8311;50.158;8.642;2024-02-16T04:57:47;3.55;;;2.05;;
16403;SDS011;8311;50.158;8.642;2024-02-16T05:00:42;4.05;;;2.40;;
16403;SDS011;8311;50.158;8.642;2024-02-16T05:03:37;4.60;;;2.40;;
16403;SDS011;8311;50.158;8.642;2024-02-16T05:06:38;3.72;;;2.10;;
16403;SDS011;8311;50.158;8.642;2024-02-16T05:09:31;3.22;;;1.90;;
16403;SDS011;8311;50.158;8.642;2024-02-16T05:12:26;3.13;;;2.08;;
16403;SDS011;8311;50.158;8.642;2024-02-16T05:15:19;3.78;;;2.20;;
16403;SDS011;8311;50.158;8.642;2024-02-16T05:18:14;4.00;;;2.10;;
16403;SDS011;8311;50.158;8.642;2024-02-16T05:21:09;3.78;;;2.00;;
16403;SDS011;8311;50.158;8.642;2024-02-16T05:24:04;4.50;;;2.40;;
16403;SDS011;8311;50.158;8.642;2024-02-16T05:26:57;5.43;;;2.13;;
16403;SDS011;8311;50.158;8.642;2024-02-16T05:29:51;6.00;;;2.50;;
16403;SDS011;8311;50.158;8.642;2024-02-16T05:32:46;7.55;;;2.90;;
16403;SDS011;8311;50.158;8.642;2024-02-16T05:35:42;6.82;;;2.38;;
16403;SDS011;8311;50.158;8.642;2024-02-16T05:38:35;4.43;;;1.83;;
16403;SDS011;8311;50.158;8.642;2024-02-16T05:41:33;4.45;;;2.22;;
16403;SDS011;8311;50.158;8.642;2024-02-16T05:44:28;5.32;;;2.17;;
16403;SDS011;8311;50.158;8.642;2024-02-16T05:47:21;4.70;;;2.28;;
16403;SDS011;8311;50.158;8.642;2024-02-16T05:50:15;7.20;;;2.65;;
16403;SDS011;8311;50.158;8.642;2024-02-16T05:53:09;4.40;;;2.08;;
16403;SDS011;8311;50.158;8.642;2024-02-16T05:56:04;4.55;;;2.15;;
16403;SDS011;8311;50.158;8.642;2024-02-16T05:58:57;5.80;;;2.25;;
16403;SDS011;8311;50.158;8.642;2024-02-16T06:01:51;6.05;;;2.20;;
16403;SDS011;8311;50.158;8.642;2024-02-16T06:04:44;7.50;;;2.53;;
16403;SDS011;8311;50.158;8.642;2024-02-16T06:07:37;6.15;;;2.45;;
16403;SDS011;8311;50.158;8.642;2024-02-16T06:10:31;10.40;;;2.47;;
16403;SDS011;8311;50.158;8.642;2024-02-16T06:13:26;5.47;;;2.30;;
16403;SDS011;8311;50.158;8.642;2024-02-16T06:16:21;5.57;;;2.22;;
16403;SDS011;8311;50.158;8.642;2024-02-16T06:19:16;8.10;;;2.40;;
16403;SDS011;8311;50.158;8.642;2024-02-16T06:22:10;4.07;;;2.13;;
16403;SDS011;8311;50.158;8.642;2024-02-16T06:25:04;8.10;;;2.83;;
16403;SDS011;8311;50.158;8.642;2024-02-16T06:27:59;9.88;;;3.08;;
16403;SDS011;8311;50.158;8.642;2024-02-16T06:30:53;5.72;;;2.40;;
16403;SDS011;8311;50.158;8.642;2024-02-16T06:33:48;10.80;;;2.85;;
16403;SDS011;8311;50.158;8.642;2024-02-16T06:36:42;6.35;;;2.70;;
16403;SDS011;8311;50.158;8.642;2024-02-16T06:39:35;8.73;;;2.78;;
16403;SDS011;8311;50.158;8.642;2024-02-16T06:42:28;3.72;;;1.95;;
16403;SDS011;8311;50.158;8.642;2024-02-16T06:45:23;7.03;;;2.78;;
16403;SDS011;8311;50.158;8.642;2024-02-16T06:48:17;6.57;;;2.40;;
16403;SDS011;8311;50.158;8.642;2024-02-16T06:51:10;6.47;;;2.53;;
16403;SDS011;8311;50.158;8.642;2024-02-16T06:54:05;9.73;;;2.70;;
16403;SDS011;8311;50.158;8.642;2024-02-16T06:56:58;9.73;;;2.88;;
16403;SDS011;8311;50.158;8.642;2024-02-16T06:59:52;9.18;;;3.33;;
16403;SDS011;8311;50.158;8.642;2024-02-16T07:02:50;8.75;;;3.40;;
16403;SDS011;8311;50.158;8.642;2024-02-16T07:05:45;7.63;;;2.63;;
16403;SDS011;8311;50.158;8.642;2024-02-16T07:08:38;9.50;;;2.65;;
16403;SDS011;8311;50.158;8.642;2024-02-16T07:11:32;9.48;;;3.00;;
16403;SDS011;8311;50.158;8.642;2024-02-16T07:14:27;8.07;;;3.00;;
16403;SDS011;8311;50.158;8.642;2024-02-16T07:17:20;7.43;;;2.55;;
16403;SDS011;8311;50.158;8.642;2024-02-16T07:20:15;7.80;;;2.70;;
16403;SDS011;8311;50.158;8.642;2024-02-16T07:23:10;5.55;;;2.42;;
16403;SDS011;8311;50.158;8.642;2024-02-16T07:26:03;12.02;;;2.90;;
16403;SDS011;8311;50.158;8.642;2024-02-16T07:28:58;6.63;;;2.40;;
16403;SDS011;8311;50.158;8.642;2024-02-16T07:31:52;9.02;;;3.10;;
16403;SDS011;8311;50.158;8.642;2024-02-16T07:34:45;4.53;;;2.15;;
16403;SDS011;8311;50.158;8.642;2024-02-16T07:37:40;8.48;;;2.70;;
16403;SDS011;8311;50.158;8.642;2024-02-16T07:40:34;14.18;;;2.75;;
16403;SDS011;8311;50.158;8.642;2024-02-16T07:43:29;8.70;;;2.38;;
16403;SDS011;8311;50.158;8.642;2024-02-16T07:46:23;7.50;;;3.20;;
16403;SDS011;8311;50.158;8.642;2024-02-16T07:49:17;5.45;;;2.70;;
16403;SDS011;8311;50.158;8.642;2024-02-16T07:52:11;7.80;;;2.60;;
16403;SDS011;8311;50.158;8.642;2024-02-16T07:55:07;6.13;;;2.60;;
16403;SDS011;8311;50.158;8.642;2024-02-16T07:58:00;5.18;;;2.60;;
16403;SDS011;8311;50.158;8.642;2024-02-16T08:00:54;5.78;;;2.28;;
16403;SDS011;8311;50.158;8.642;2024-02-16T08:03:47;8.40;;;2.70;;
16403;SDS011;8311;50.158;8.642;2024-02-16T08:06:41;6.88;;;2.50;;
16403;SDS011;8311;50.158;8.642;2024-02-16T08:09:34;11.20;;;3.38;;
16403;SDS011;8311;50.158;8.642;2024-02-16T08:12:29;11.00;;;3.03;;
16403;SDS011;8311;50.158;8.642;2024-02-16T08:15:24;19.80;;;3.60;;
16403;SDS011;8311;50.158;8.642;2024-02-16T08:18:18;9.48;;;2.78;;
16403;SDS011;8311;50.158;8.642;2024-02-16T08:21:12;5.22;;;2.05;;
16403;SDS011;8311;50.158;8.642;2024-02-16T08:24:07;8.23;;;3.58;;
16403;SDS011;8311;50.158;8.642;2024-02-16T08:27:00;9.20;;;4.97;;
16403;SDS011;8311;50.158;8.642;2024-02-16T08:29:56;9.65;;;4.30;;
16403;SDS011;8311;50.158;8.642;2024-02-16T08:32:49;6.78;;;3.88;;
16403;SDS011;8311;50.158;8.642;2024-02-16T08:35:43;8.85;;;3.28;;
16403;SDS011;8311;50.158;8.642;2024-02-16T08:38:37;9.90;;;4.63;;
16403;SDS011;8311;50.158;8.642;2024-02-16T08:41:30;7.15;;;3.58;;
16403;SDS011;8311;50.158;8.642;2024-02-16T08:44:24;6.47;;;3.70;;
16403;SDS011;8311;50.158;8.642;2024-02-16T08:47:19;7.88;;;3.53;;
16403;SDS011;8311;50.158;8.642;2024-02-16T08:50:14;8.30;;;3.92;;
16403;SDS011;8311;50.158;8.642;2024-02-16T08:53:07;8.07;;;3.55;;
16403;SDS011;8311;50.158;8.642;2024-02-16T08:56:02;9.18;;;4.18;;
16403;SDS011;8311;50.158;8.642;2024-02-16T08:58:55;8.38;;;4.13;;
16403;SDS011;8311;50.158;8.642;2024-02-16T09:01:50;6.93;;;4.15;;
16403;SDS011;8311;50.158;8.642;2024-02-16T09:04:44;9.25;;;4.03;;
16403;SDS011;8311;50.158;8.642;2024-02-16T09:07:39;6.03;;;4.03;;
16403;SDS011;8311;50.158;8.642;2024-02-16T09:10:33;10.07;;;4.88;;
16403;SDS011;8311;50.158;8.642;2024-02-16T09:13:29;10.68;;;4.10;;
16403;SDS011;8311;50.158;8.642;2024-02-16T09:16:25;11.20;;;4.10;;
16403;SDS011;8311;50.158;8.642;2024-02-16T09:19:19;12.23;;;4.50;;
16403;SDS011;8311;50.158;8.642;2024-02-16T09:22:14;12.27;;;4.50;;
16403;SDS011;8311;50.158;8.642;2024-02-16T09:25:08;7.30;;;3.80;;
16403;SDS011;8311;50.158;8.642;2024-02-16T09:28:00;13.00;;;3.65;;
16403;SDS011;8311;50.158;8.642;2024-02-16T09:30:54;5.82;;;3.42;;
16403;SDS011;8311;50.158;8.642;2024-02-16T09:33:47;9.07;;;3.50;;
16403;SDS011;8311;50.158;8.642;2024-02-16T09:36:43;10.35;;;3.70;;
16403;SDS011;8311;50.158;8.642;2024-02-16T09:39:38;7.80;;;3.60;;
16403;SDS011;8311;50.158;8.642;2024-02-16T09:42:35;7.30;;;3.78;;
16403;SDS011;8311;50.158;8.642;2024-02-16T09:45:30;7.35;;;3.30;;
16403;SDS011;8311;50.158;8.642;2024-02-16T09:48:26;6.75;;;2.88;;
16403;SDS011;8311;50.158;8.642;2024-02-16T09:51:20;7.55;;;2.95;;
16403;SDS011;8311;50.158;8.642;2024-02-16T09:54:13;5.53;;;3.47;;
16403;SDS011;8311;50.158;8.642;2024-02-16T09:57:08;8.77;;;3.03;;
16403;SDS011;8311;50.158;8.642;2024-02-16T10:00:03;5.35;;;2.90;;
16403;SDS011;8311;50.158;8.642;2024-02-16T10:02:56;7.65;;;3.22;;
16403;SDS011;8311;50.158;8.642;2024-02-16T10:05:52;11.13;;;4.00;;
16403;SDS011;8311;50.158;8.642;2024-02-16T10:08:55;12.38;;;3.85;;
16403;SDS011;8311;50.158;8.642;2024-02-16T10:11:49;14.52;;;3.97;;
16403;SDS011;8311;50.158;8.642;2024-02-16T10:14:54;18.02;;;4.40;;
16403;SDS011;8311;50.158;8.642;2024-02-16T10:17:58;23.70;;;4.68;;
16403;SDS011;8311;50.158;8.642;2024-02-16T10:20:51;15.65;;;4.57;;
16403;SDS011;8311;50.158;8.642;2024-02-16T10:23:54;20.15;;;4.22;;
16403;SDS011;8311;50.158;8.642;2024-02-16T10:26:48;43.88;;;7.57;;
16403;SDS011;8311;50.158;8.642;2024-02-16T10:29:43;25.33;;;6.05;;
16403;SDS011;8311;50.158;8.642;2024-02-16T10:32:40;31.83;;;5.43;;
16403;SDS011;8311;50.158;8.642;2024-02-16T10:35:33;25.52;;;6.00;;
16403;SDS011;8311;50.158;8.642;2024-02-16T10:38:27;24.90;;;5.82;;
16403;SDS011;8311;50.158;8.642;2024-02-16T10:41:23;24.23;;;4.75;;
16403;SDS011;8311;50.158;8.642;2024-02-16T10:44:20;24.27;;;6.30;;
16403;SDS011;8311;50.158;8.642;2024-02-16T10:47:12;25.38;;;5.70;;
16403;SDS011;8311;50.158;8.642;2024-02-16T10:50:09;22.45;;;5.45;;
16403;SDS011;8311;50.158;8.642;2024-02-16T10:53:04;25.38;;;5.60;;
16403;SDS011;8311;50.158;8.642;2024-02-16T10:56:06;29.15;;;5.13;;
16403;SDS011;8311;50.158;8.642;2024-02-16T10:59:00;25.40;;;6.18;;
16403;SDS011;8311;50.158;8.642;2024-02-16T11:01:59;27.13;;;5.57;;
16403;SDS011;8311;50.158;8.642;2024-02-16T11:04:53;19.67;;;4.60;;
16403;SDS011;8311;50.158;8.642;2024-02-16T11:08:00;16.90;;;5.13;;
16403;SDS011;8311;50.158;8.642;2024-02-16T11:10:54;21.15;;;4.78;;
16403;SDS011;8311;50.158;8.642;2024-02-16T11:13:49;19.63;;;5.18;;
16403;SDS011;8311;50.158;8.642;2024-02-16T11:16:47;20.58;;;5.65;;
16403;SDS011;8311;50.158;8.642;2024-02-16T11:19:40;14.35;;;4.88;;
16403;SDS011;8311;50.158;8.642;2024-02-16T11:22:36;15.15;;;4.47;;
16403;SDS011;8311;50.158;8.642;2024-02-16T11:25:32;11.07;;;4.65;;
16403;SDS011;8311;50.158;8.642;2024-02-16T11:28:26;12.55;;;3.95;;
16403;SDS011;8311;50.158;8.642;2024-02-16T11:31:22;10.27;;;3.47;;
16403;SDS011;8311;50.158;8.642;2024-02-16T11:34:21;11.85;;;4.38;;
16403;SDS011;8311;50.158;8.642;2024-02-16T11:37:15;11.43;;;3.47;;
16403;SDS011;8311;50.158;8.642;2024-02-16T11:40:10;8.85;;;4.00;;
16403;SDS011;8311;50.158;8.642;2024-02-16T11:43:06;7.93;;;3.35;;
16403;SDS011;8311;50.158;8.642;2024-02-16T11:46:10;10.25;;;3.80;;
16403;SDS011;8311;50.158;8.642;2024-02-16T11:49:05;7.65;;;2.83;;
16403;SDS011;8311;50.158;8.642;2024-02-16T11:51:59;7.93;;;3.53;;
16403;SDS011;8311;50.158;8.642;2024-02-16T11:54:55;7.70;;;3.15;;
16403;SDS011;8311;50.158;8.642;2024-02-16T11:57:53;8.80;;;3.53;;
16403;SDS011;8311;50.158;8.642;2024-02-16T12:00:50;10.20;;;3.58;;
16403;SDS011;8311;50.158;8.642;2024-02-16T12:03:44;7.45;;;3.58;;
16403;SDS011;8311;50.158;8.642;2024-02-16T12:06:38;7.20;;;3.45;;
16403;SDS011;8311;50.158;8.642;2024-02-16T12:09:31;8.68;;;3.55;;
16403;SDS011;8311;50.158;8.642;2024-02-16T12:12:27;8.27;;;3.67;;
16403;SDS011;8311;50.158;8.642;2024-02-16T12:15:21;10.73;;;4.05;;
16403;SDS011;8311;50.158;8.642;2024-02-16T12:18:22;8.57;;;3.40;;
16403;SDS011;8311;50.158;8.642;2024-02-16T12:21:17;7.40;;;3.53;;
16403;SDS011;8311;50.158;8.642;2024-02-16T12:24:12;6.82;;;3.13;;
16403;SDS011;8311;50.158;8.642;2024-02-16T12:27:06;6.10;;;3.20;;
16403;SDS011;8311;50.158;8.642;2024-02-16T12:30:00;6.82;;;3.45;;
16403;SDS011;8311;50.158;8.642;2024-02-16T12:32:54;6.18;;;3.20;;
16403;SDS011;8311;50.158;8.642;2024-02-16T12:35:49;8.07;;;3.33;;
16403;SDS011;8311;50.158;8.642;2024-02-16T12:38:43;15.63;;;3.83;;
16403;SDS011;8311;50.158;8.642;2024-02-16T12:41:36;7.68;;;3.78;;
16403;SDS011;8311;50.158;8.642;2024-02-16T12:44:30;7.38;;;3.20;;
16403;SDS011;8311;50.158;8.642;2024-02-16T12:47:23;9.50;;;3.75;;
16403;SDS011;8311;50.158;8.642;2024-02-16T12:50:16;7.25;;;3.35;;
16403;SDS011;8311;50.158;8.642;2024-02-16T12:53:11;6.15;;;3.13;;
16403;SDS011;8311;50.158;8.642;2024-02-16T12:56:06;8.32;;;3.45;;
16403;SDS011;8311;50.158;8.642;2024-02-16T12:59:00;8.75;;;3.05;;
16403;SDS011;8311;50.158;8.642;2024-02-16T13:01:56;9.63;;;2.95;;
16403;SDS011;8311;50.158;8.642;2024-02-16T13:04:48;8.20;;;3.20;;
16403;SDS011;8311;50.158;8.642;2024-02-16T13:07:42;9.00;;;3.00;;
16403;SDS011;8311;50.158;8.642;2024-02-16T13:10:37;11.52;;;4.05;;
16403;SDS011;8311;50.158;8.642;2024-02-16T13:13:32;9.45;;;3.03;;
16403;SDS011;8311;50.158;8.642;2024-02-16T13:16:25;7.63;;;2.90;;
16403;SDS011;8311;50.158;8.642;2024-02-16T13:19:19;6.05;;;2.95;;
16403;SDS011;8311;50.158;8.642;2024-02-16T13:22:13;6.57;;;3.08;;
16403;SDS011;8311;50.158;8.642;2024-02-16T13:25:08;7.40;;;2.65;;
16403;SDS011;8311;50.158;8.642;2024-02-16T13:28:03;6.85;;;3.42;;
16403;SDS011;8311;50.158;8.642;2024-02-16T13:30:58;7.65;;;2.78;;
16403;SDS011;8311;50.158;8.642;2024-02-16T13:33:51;5.53;;;2.67;;
16403;SDS011;8311;50.158;8.642;2024-02-16T13:36:48;10.52;;;3.03;;
16403;SDS011;8311;50.158;8.642;2024-02-16T13:39:42;8.48;;;3.10;;
16403;SDS011;8311;50.158;8.642;2024-02-16T13:42:35;6.28;;;2.75;;
16403;SDS011;8311;50.158;8.642;2024-02-16T13:45:30;5.78;;;2.88;;
16403;SDS011;8311;50.158;8.642;2024-02-16T13:48:43;8.35;;;3.35;;
16403;SDS011;8311;50.158;8.642;2024-02-16T13:51:37;7.88;;;3.35;;
16403;SDS011;8311;50.158;8.642;2024-02-16T13:54:32;6.25;;;3.00;;
16403;SDS011;8311;50.158;8.642;2024-02-16T13:57:25;6.47;;;2.70;;
16403;SDS011;8311;50.158;8.642;2024-02-16T14:00:18;6.88;;;3.20;;
16403;SDS011;8311;50.158;8.642;2024-02-16T14:03:13;4.93;;;2.45;;
16403;SDS011;8311;50.158;8.642;2024-02-16T14:06:09;7.53;;;2.92;;
16403;SDS011;8311;50.158;8.642;2024-02-16T14:09:03;6.15;;;3.22;;
16403;SDS011;8311;50.158;8.642;2024-02-16T14:12:10;6.47;;;2.63;;
16403;SDS011;8311;50.158;8.642;2024-02-16T14:15:04;5.63;;;2.97;;
16403;SDS011;8311;50.158;8.642;2024-02-16T14:17:59;5.75;;;2.92;;
16403;SDS011;8311;50.158;8.642;2024-02-16T14:21:04;6.07;;;2.72;;
16403;SDS011;8311;50.158;8.642;2024-02-16T14:23:58;5.78;;;2.20;;
16403;SDS011;8311;50.158;8.642;2024-02-16T14:26:51;6.28;;;2.63;;
16403;SDS011;8311;50.158;8.642;2024-02-16T14:29:46;5.18;;;2.60;;
16403;SDS011;8311;50.158;8.642;2024-02-16T14:32:42;6.10;;;2.50;;
16403;SDS011;8311;50.158;8.642;2024-02-16T14:35:35;4.88;;;2.65;;
16403;SDS011;8311;50.158;8.642;2024-02-16T14:38:30;4.03;;;2.35;;
16403;SDS011;8311;50.158;8.642;2024-02-16T14:41:23;4.70;;;2.10;;
16403;SDS011;8311;50.158;8.642;2024-02-16T14:44:17;4.00;;;2.22;;
16403;SDS011;8311;50.158;8.642;2024-02-16T14:47:09;5.65;;;2.60;;
16403;SDS011;8311;50.158;8.642;2024-02-16T14:50:05;4.47;;;2.50;;
16403;SDS011;8311;50.158;8.642;2024-02-16T14:52:59;4.85;;;2.22;;
16403;SDS011;8311;50.158;8.642;2024-02-16T14:55:54;5.13;;;2.58;;
16403;SDS011;8311;50.158;8.642;2024-02-16T14:58:48;4.78;;;2.08;;
16403;SDS011;8311;50.158;8.642;2024-02-16T15:01:42;5.35;;;2.47;;
16403;SDS011;8311;50.158;8.642;2024-02-16T15:04:35;5.60;;;2.55;;
16403;SDS011;8311;50.158;8.642;2024-02-16T15:07:29;4.45;;;2.22;;
16403;SDS011;8311;50.158;8.642;2024-02-16T15:10:22;5.10;;;2.40;;
16403;SDS011;8311;50.158;8.642;2024-02-16T15:13:18;4.85;;;2.65;;
16403;SDS011;8311;50.158;8.642;2024-02-16T15:16:11;6.10;;;2.50;;
16403;SDS011;8311;50.158;8.642;2024-02-16T15:19:05;4.15;;;1.98;;
16403;SDS011;8311;50.158;8.642;2024-02-16T15:21:59;6.25;;;2.50;;
16403;SDS011;8311;50.158;8.642;2024-02-16T15:24:52;4.10;;;2.33;;
16403;SDS011;8311;50.158;8.642;2024-02-16T15:27:45;4.25;;;2.45;;
16403;SDS011;8311;50.158;8.642;2024-02-16T15:30:42;6.43;;;2.50;;
16403;SDS011;8311;50.158;8.642;2024-02-16T15:33:36;3.85;;;2.30;;
16403;SDS011;8311;50.158;8.642;2024-02-16T15:36:30;3.85;;;1.88;;
16403;SDS011;8311;50.158;8.642;2024-02-16T15:39:23;3.88;;;2.30;;
16403;SDS011;8311;50.158;8.642;2024-02-16T15:42:18;6.10;;;2.20;;
16403;SDS011;8311;50.158;8.642;2024-02-16T15:45:12;7.53;;;2.40;;
16403;SDS011;8311;50.158;8.642;2024-02-16T15:48:07;4.97;;;2.35;;
16403;SDS011;8311;50.158;8.642;2024-02-16T15:51:04;4.00;;;2.08;;
16403;SDS011;8311;50.158;8.642;2024-02-16T15:53:59;5.43;;;2.40;;
16403;SDS011;8311;50.158;8.642;2024-02-16T15:56:53;6.63;;;2.47;;
16403;SDS011;8311;50.158;8.642;2024-02-16T15:59:49;4.68;;;2.40;;
16403;SDS011;8311;50.158;8.642;2024-02-16T16:02:43;4.88;;;2.17;;
16403;SDS011;8311;50.158;8.642;2024-02-16T16:05:38;6.07;;;2.45;;
16403;SDS011;8311;50.158;8.642;2024-02-16T16:08:31;4.32;;;2.28;;
16403;SDS011;8311;50.158;8.642;2024-02-16T16:11:24;4.75;;;2.40;;
16403;SDS011;8311;50.158;8.642;2024-02-16T16:14:17;4.72;;;2.38;;
16403;SDS011;8311;50.158;8.642;2024-02-16T16:17:10;3.40;;;2.03;;
16403;SDS011;8311;50.158;8.642;2024-02-16T16:20:06;3.83;;;2.03;;
16403;SDS011;8311;50.158;8.642;2024-02-16T16:23:01;4.45;;;2.17;;
16403;SDS011;8311;50.158;8.642;2024-02-16T16:25:55;5.20;;;2.83;;
16403;SDS011;8311;50.158;8.642;2024-02-16T16:28:52;3.67;;;1.70;;
16403;SDS011;8311;50.158;8.642;2024-02-16T16:31:48;3.75;;;2.33;;
16403;SDS011;8311;50.158;8.642;2024-02-16T16:34:41;5.25;;;2.35;;
16403;SDS011;8311;50.158;8.642;2024-02-16T16:37:34;5.93;;;2.33;;
16403;SDS011;8311;50.158;8.642;2024-02-16T16:40:28;3.33;;;1.98;;
16403;SDS011;8311;50.158;8.642;2024-02-16T16:43:22;5.15;;;2.30;;
16403;SDS011;8311;50.158;8.642;2024-02-16T16:46:15;4.32;;;1.88;;
16403;SDS011;8311;50.158;8.642;2024-02-16T16:49:10;4.10;;;2.22;;
16403;SDS011;8311;50.158;8.642;2024-02-16T16:52:04;2.67;;;1.80;;
16403;SDS011;8311;50.158;8.642;2024-02-16T16:54:58;4.40;;;2.20;;
16403;SDS011;8311;50.158;8.642;2024-02-16T16:57:53;5.75;;;2.15;;
16403;SDS011;8311;50.158;8.642;2024-02-16T17:00:48;3.08;;;1.70;;
16403;SDS011;8311;50.158;8.642;2024-02-16T17:03:41;3.50;;;1.73;;
16403;SDS011;8311;50.158;8.642;2024-02-16T17:06:35;3.55;;;2.00;;
16403;SDS011;8311;50.158;8.642;2024-02-16T17:09:28;4.85;;;1.98;;
16403;SDS011;8311;50.158;8.642;2024-02-16T17:12:23;3.08;;;2.00;;
16403;SDS011;8311;50.158;8.642;2024-02-16T17:15:18;4.00;;;2.20;;
16403;SDS011;8311;50.158;8.642;2024-02-16T17:18:13;3.78;;;2.20;;
16403;SDS011;8311;50.158;8.642;2024-02-16T17:21:07;5.05;;;2.50;;
16403;SDS011;8311;50.158;8.642;2024-02-16T17:24:01;6.00;;;2.92;;
16403;SDS011;8311;50.158;8.642;2024-02-16T17:26:54;5.72;;;3.15;;
16403;SDS011;8311;50.158;8.642;2024-02-16T17:29:47;5.57;;;2.85;;
16403;SDS011;8311;50.158;8.642;2024-02-16T17:32:44;6.28;;;3.30;;
16403;SDS011;8311;50.158;8.642;2024-02-16T17:35:39;7.80;;;2.90;;
16403;SDS011;8311;50.158;8.642;2024-02-16T17:38:33;4.35;;;3.00;;
16403;SDS011;8311;50.158;8.642;2024-02-16T17:41:26;5.28;;;2.65;;
16403;SDS011;8311;50.158;8.642;2024-02-16T17:44:21;7.30;;;3.10;;
16403;SDS011;8311;50.158;8.642;2024-02-16T17:47:14;8.70;;;3.92;;